Time;durP1;ratioP1;P1;durP2;ratioP2;P2;SDS_P1;SDS_P2;PMS_P1;PMS_P2;Temp;Humidity;BMP_temperature;BMP_pressure;BME280_temperature;BME280_humidity;BME280_pressure;Samples;Min_cycle;Max_cycle;Signal;HPM_P1;HPM_P2
2021/07/26 00:01:16;;;;;;;10.07;8.47;;;;;;;;;;5073231;28;20409;-70
2021/07/26 00:03:42;;;;;;;15.40;8.43;;;;;;;;;;5071708;28;20793;-70
2021/07/26 00:06:09;;;;;;;9.60;8.03;;;;;;;;;;5073055;28;20474;-70
2021/07/26 00:08:36;;;;;;;12.00;8.30;;;;;;;;;;5076938;28;20507;-70
2021/07/26 00:11:06;;;;;;;10.83;8.00;;;;;;;;;;5093253;28;20408;-70
2021/07/26 00:13:32;;;;;;;9.33;7.67;;;;;;;;;;5090871;28;20451;-70
2021/07/26 00:15:58;;;;;;;9.70;8.20;;;;;;;;;;5093052;28;20400;-70
2021/07/26 00:18:26;;;;;;;11.27;8.50;;;;;;;;;;5085193;28;20471;-70
2021/07/26 00:20:52;;;;;;;10.90;8.00;;;;;;;;;;5052880;28;20414;-70
2021/07/26 00:23:19;;;;;;;12.30;9.60;;;;;;;;;;5054375;28;20456;-70
2021/07/26 00:25:45;;;;;;;9.90;8.17;;;;;;;;;;5073007;28;20432;-70
2021/07/26 00:28:12;;;;;;;13.70;9.60;;;;;;;;;;5071882;28;20442;-70
2021/07/26 00:30:38;;;;;;;11.37;8.23;;;;;;;;;;5092836;28;20487;-70
2021/07/26 00:33:46;;;;;;;10.87;7.90;;;;;;;;;;5091972;28;20412;-70
2021/07/26 00:36:12;;;;;;;13.90;7.97;;;;;;;;;;5052398;28;20407;-70
2021/07/26 00:38:38;;;;;;;10.60;7.80;;;;;;;;;;5060563;28;20424;-70
2021/07/26 00:41:05;;;;;;;11.40;9.60;;;;;;;;;;5092668;28;20953;-70
2021/07/26 00:43:31;;;;;;;9.80;7.70;;;;;;;;;;5088129;28;21366;-70
2021/07/26 00:45:57;;;;;;;9.63;7.70;;;;;;;;;;5096781;28;20427;-70
2021/07/26 00:48:23;;;;;;;11.30;8.03;;;;;;;;;;5094644;28;20888;-70
2021/07/26 00:50:49;;;;;;;8.90;7.27;;;;;;;;;;5096749;28;20483;-69
2021/07/26 00:53:15;;;;;;;10.23;7.97;;;;;;;;;;5073667;28;20431;-70
2021/07/26 00:55:41;;;;;;;12.10;8.57;;;;;;;;;;5096582;28;20407;-70
2021/07/26 00:58:07;;;;;;;14.30;9.10;;;;;;;;;;5096529;28;20900;-69
2021/07/26 01:00:33;;;;;;;8.73;7.40;;;;;;;;;;5075553;28;20455;-69
2021/07/26 01:02:59;;;;;;;10.03;8.03;;;;;;;;;;5076406;28;20503;-71
2021/07/26 01:05:26;;;;;;;11.20;7.50;;;;;;;;;;5057470;28;20448;-71
2021/07/26 01:07:52;;;;;;;11.00;7.90;;;;;;;;;;5056338;28;20428;-71
2021/07/26 01:10:18;;;;;;;11.50;8.30;;;;;;;;;;5078933;28;20972;-71
2021/07/26 01:12:44;;;;;;;10.10;7.60;;;;;;;;;;5067043;28;20413;-71
2021/07/26 01:15:10;;;;;;;13.00;8.27;;;;;;;;;;5073392;28;20453;-71
2021/07/26 01:17:55;;;;;;;9.90;8.10;;;;;;;;;;5076334;28;20404;-71
2021/07/26 01:20:21;;;;;;;10.03;8.37;;;;;;;;;;5063249;28;20866;-71
2021/07/26 01:22:47;;;;;;;9.17;7.60;;;;;;;;;;5055749;28;20954;-70
2021/07/26 01:25:13;;;;;;;9.07;7.13;;;;;;;;;;5055697;28;20465;-70
2021/07/26 01:27:39;;;;;;;10.57;8.37;;;;;;;;;;5055671;28;20413;-71
2021/07/26 01:30:05;;;;;;;10.87;8.33;;;;;;;;;;5073771;28;20415;-71
2021/07/26 01:32:31;;;;;;;13.90;9.37;;;;;;;;;;5095976;28;20412;-71
2021/07/26 01:34:58;;;;;;;11.93;8.43;;;;;;;;;;5078648;28;20553;-71
2021/07/26 01:37:24;;;;;;;13.37;8.07;;;;;;;;;;5055889;28;20754;-71
2021/07/26 01:39:50;;;;;;;10.70;8.13;;;;;;;;;;5068140;28;20821;-71
2021/07/26 01:42:18;;;;;;;12.77;8.00;;;;;;;;;;5064018;28;20437;-71
2021/07/26 01:44:44;;;;;;;8.70;7.00;;;;;;;;;;5073448;28;20448;-71
2021/07/26 01:47:13;;;;;;;11.10;8.90;;;;;;;;;;5075424;28;20408;-71
2021/07/26 01:49:51;;;;;;;12.67;8.80;;;;;;;;;;5078762;28;20444;-71
2021/07/26 01:52:17;;;;;;;8.07;7.27;;;;;;;;;;5077757;28;20438;-71
2021/07/26 01:54:43;;;;;;;13.23;9.37;;;;;;;;;;5083617;28;20460;-71
2021/07/26 01:57:09;;;;;;;11.10;7.77;;;;;;;;;;5055158;28;20977;-71
2021/07/26 01:59:37;;;;;;;12.90;8.20;;;;;;;;;;5057877;28;20416;-71
2021/07/26 02:02:03;;;;;;;9.63;7.23;;;;;;;;;;5073422;28;20934;-71
2021/07/26 02:04:29;;;;;;;13.33;8.80;;;;;;;;;;5076287;28;20525;-71
2021/07/26 02:06:55;;;;;;;10.37;9.27;;;;;;;;;;5095345;28;20833;-71
2021/07/26 02:09:21;;;;;;;10.10;8.40;;;;;;;;;;5092546;28;20399;-71
2021/07/26 02:11:47;;;;;;;8.17;7.00;;;;;;;;;;5074955;28;20540;-71
2021/07/26 02:14:13;;;;;;;9.83;7.13;;;;;;;;;;5074586;28;20860;-71
2021/07/26 02:16:42;;;;;;;10.37;6.90;;;;;;;;;;5055120;28;20425;-71
2021/07/26 02:19:08;;;;;;;8.90;6.97;;;;;;;;;;5054728;28;20406;-71
2021/07/26 02:21:34;;;;;;;8.93;7.00;;;;;;;;;;5073537;28;20500;-71
2021/07/26 02:24:00;;;;;;;8.90;7.20;;;;;;;;;;5074567;28;20460;-71
2021/07/26 02:26:26;;;;;;;8.03;6.90;;;;;;;;;;5072442;28;20417;-71
2021/07/26 02:28:53;;;;;;;9.00;6.20;;;;;;;;;;5074918;28;20404;-69
2021/07/26 02:31:19;;;;;;;8.60;7.50;;;;;;;;;;5090074;28;20920;-70
2021/07/26 02:33:45;;;;;;;7.27;6.23;;;;;;;;;;5118273;22;20431;-71
2021/07/26 02:36:11;;;;;;;9.87;7.00;;;;;;;;;;5109527;28;20842;-70
2021/07/26 02:38:37;;;;;;;7.93;6.30;;;;;;;;;;5115407;28;20382;-70
2021/07/26 02:41:13;;;;;;;8.37;6.10;;;;;;;;;;5107347;28;20500;-70
2021/07/26 02:43:39;;;;;;;8.70;6.40;;;;;;;;;;5090048;28;20451;-70
2021/07/26 02:46:06;;;;;;;11.17;6.63;;;;;;;;;;5092491;28;20456;-70
2021/07/26 02:48:39;;;;;;;8.43;6.23;;;;;;;;;;5081822;28;20427;-70
2021/07/26 02:51:05;;;;;;;7.47;5.47;;;;;;;;;;5093550;28;20440;-70
2021/07/26 02:53:31;;;;;;;7.80;5.13;;;;;;;;;;5094519;28;20453;-70
2021/07/26 02:55:57;;;;;;;6.40;5.43;;;;;;;;;;5093664;28;20442;-70
2021/07/26 02:58:23;;;;;;;7.80;5.50;;;;;;;;;;5094831;28;20923;-70
2021/07/26 03:00:50;;;;;;;5.83;5.17;;;;;;;;;;5100896;28;20427;-70
2021/07/26 03:03:16;;;;;;;7.17;5.03;;;;;;;;;;5114849;28;20442;-70
2021/07/26 03:05:42;;;;;;;8.33;4.73;;;;;;;;;;5102887;28;20529;-70
2021/07/26 03:08:09;;;;;;;5.87;4.90;;;;;;;;;;5093503;28;20400;-70
2021/07/26 03:10:35;;;;;;;8.40;5.43;;;;;;;;;;5093255;28;20920;-70
2021/07/26 03:13:01;;;;;;;6.83;5.33;;;;;;;;;;5099436;28;20915;-70
2021/07/26 03:15:27;;;;;;;6.20;4.87;;;;;;;;;;5105480;28;20452;-70
2021/07/26 03:17:53;;;;;;;5.70;4.70;;;;;;;;;;5094171;28;20833;-70
2021/07/26 03:20:19;;;;;;;7.10;5.80;;;;;;;;;;5093253;28;20432;-70
2021/07/26 03:23:03;;;;;;;6.93;5.17;;;;;;;;;;5088657;28;20514;-70
2021/07/26 03:25:30;;;;;;;7.87;5.13;;;;;;;;;;5083665;28;20454;-71
2021/07/26 03:27:56;;;;;;;7.97;4.97;;;;;;;;;;5073888;28;20389;-71
2021/07/26 03:30:22;;;;;;;6.80;6.00;;;;;;;;;;5079801;28;20431;-71
2021/07/26 03:32:49;;;;;;;7.37;4.80;;;;;;;;;;5094191;28;20432;-71
2021/07/26 03:35:16;;;;;;;6.70;4.93;;;;;;;;;;5088618;28;20836;-71
2021/07/26 03:37:42;;;;;;;6.87;5.60;;;;;;;;;;5073583;28;20839;-71
2021/07/26 03:40:09;;;;;;;7.50;4.80;;;;;;;;;;5076657;28;20428;-71
2021/07/26 03:42:35;;;;;;;7.13;5.10;;;;;;;;;;5093725;28;20861;-71
2021/07/26 03:45:01;;;;;;;6.77;5.23;;;;;;;;;;5092893;28;20504;-71
2021/07/26 03:47:27;;;;;;;6.77;5.37;;;;;;;;;;5093746;28;20449;-71
2021/07/26 03:49:53;;;;;;;7.13;5.87;;;;;;;;;;5092684;28;20407;-72
2021/07/26 03:52:19;;;;;;;7.33;5.50;;;;;;;;;;5093876;28;20404;-71
2021/07/26 03:54:45;;;;;;;8.37;5.80;;;;;;;;;;5092916;28;20423;-71
2021/07/26 03:57:11;;;;;;;7.67;5.93;;;;;;;;;;5093802;28;20585;-71
2021/07/26 03:59:37;;;;;;;5.50;4.90;;;;;;;;;;5092150;28;20778;-71
2021/07/26 04:02:04;;;;;;;6.00;4.80;;;;;;;;;;5073894;28;20425;-71
2021/07/26 04:04:30;;;;;;;7.27;5.70;;;;;;;;;;5073417;28;20456;-71
2021/07/26 04:06:59;;;;;;;5.40;4.80;;;;;;;;;;5090592;28;20435;-71
2021/07/26 04:09:33;;;;;;;6.93;5.13;;;;;;;;;;5091487;28;20924;-71
2021/07/26 04:12:22;;;;;;;7.43;4.90;;;;;;;;;;5090751;28;20423;-71
2021/07/26 04:14:48;;;;;;;7.20;5.33;;;;;;;;;;5093285;28;20493;-71
2021/07/26 04:17:14;;;;;;;8.37;5.03;;;;;;;;;;5093035;28;20455;-71
2021/07/26 04:19:40;;;;;;;7.90;5.70;;;;;;;;;;5093202;28;20828;-71
2021/07/26 04:22:06;;;;;;;7.60;5.90;;;;;;;;;;5092332;28;20502;-71
2021/07/26 04:24:32;;;;;;;9.60;4.90;;;;;;;;;;5093371;28;20541;-71
2021/07/26 04:26:58;;;;;;;6.60;5.60;;;;;;;;;;5110064;28;20863;-71
2021/07/26 04:29:24;;;;;;;6.13;5.07;;;;;;;;;;5098262;28;20461;-71
2021/07/26 04:31:50;;;;;;;7.17;5.30;;;;;;;;;;5088572;28;20435;-71
2021/07/26 04:34:17;;;;;;;6.50;5.00;;;;;;;;;;5093240;28;20462;-71
2021/07/26 04:36:43;;;;;;;7.13;6.17;;;;;;;;;;5100774;28;20439;-71
2021/07/26 04:39:09;;;;;;;8.77;7.87;;;;;;;;;;5111671;28;20435;-71
2021/07/26 04:41:35;;;;;;;7.77;6.70;;;;;;;;;;5096693;28;20494;-71
2021/07/26 04:44:01;;;;;;;6.50;5.87;;;;;;;;;;5092022;28;20456;-71
2021/07/26 04:46:27;;;;;;;6.90;5.97;;;;;;;;;;5092220;28;20545;-71
2021/07/26 04:48:53;;;;;;;7.77;5.37;;;;;;;;;;5092812;28;20432;-71
2021/07/26 04:51:20;;;;;;;8.67;5.10;;;;;;;;;;5091927;28;20424;-71
2021/07/26 04:53:46;;;;;;;6.90;5.30;;;;;;;;;;5092808;28;20408;-71
2021/07/26 04:56:12;;;;;;;6.47;4.80;;;;;;;;;;5092297;28;20446;-71
2021/07/26 04:58:38;;;;;;;6.60;5.47;;;;;;;;;;5092862;28;20475;-71
2021/07/26 05:01:04;;;;;;;6.97;5.80;;;;;;;;;;5091876;28;20483;-70
2021/07/26 05:03:30;;;;;;;7.20;5.23;;;;;;;;;;5091691;28;20451;-70
2021/07/26 05:05:56;;;;;;;6.10;5.37;;;;;;;;;;5091923;28;20436;-71
2021/07/26 05:08:22;;;;;;;8.20;5.37;;;;;;;;;;5092887;28;20396;-71
2021/07/26 05:10:48;;;;;;;7.47;5.30;;;;;;;;;;5091784;28;20931;-71
2021/07/26 05:13:15;;;;;;;8.60;5.53;;;;;;;;;;5092924;28;20411;-71
2021/07/26 05:15:41;;;;;;;7.57;6.23;;;;;;;;;;5086622;28;20460;-71
2021/07/26 05:18:07;;;;;;;8.43;5.53;;;;;;;;;;5072255;28;20404;-71
2021/07/26 05:20:33;;;;;;;10.03;6.00;;;;;;;;;;5073566;28;20431;-71
2021/07/26 05:23:00;;;;;;;8.93;5.47;;;;;;;;;;5092754;28;20447;-71
2021/07/26 05:25:26;;;;;;;4.73;4.20;;;;;;;;;;5091540;28;20920;-71
2021/07/26 05:27:52;;;;;;;10.90;6.63;;;;;;;;;;5092732;28;20946;-70
2021/07/26 05:30:18;;;;;;;10.27;6.20;;;;;;;;;;5093029;28;20400;-71
2021/07/26 05:32:44;;;;;;;5.60;4.50;;;;;;;;;;5096321;28;20853;-70
2021/07/26 05:35:10;;;;;;;7.80;4.77;;;;;;;;;;5096071;28;20538;-70
2021/07/26 05:37:36;;;;;;;5.57;4.50;;;;;;;;;;5095921;28;20523;-70
2021/07/26 05:40:03;;;;;;;5.10;4.40;;;;;;;;;;5096217;28;20396;-71
2021/07/26 05:42:29;;;;;;;7.70;5.40;;;;;;;;;;5095330;28;20526;-71
2021/07/26 05:44:56;;;;;;;7.67;5.13;;;;;;;;;;5096303;28;20537;-70
2021/07/26 05:47:22;;;;;;;8.70;5.57;;;;;;;;;;5095375;28;20507;-70
2021/07/26 05:49:48;;;;;;;6.50;4.47;;;;;;;;;;5095889;28;20392;-71
2021/07/26 05:52:14;;;;;;;6.07;4.57;;;;;;;;;;5095438;28;20427;-70
2021/07/26 05:54:40;;;;;;;9.53;5.40;;;;;;;;;;5095206;28;20513;-70
2021/07/26 05:57:14;;;;;;;6.23;5.03;;;;;;;;;;5094829;28;20916;-70
2021/07/26 05:59:40;;;;;;;6.30;5.07;;;;;;;;;;5092407;28;20420;-71
2021/07/26 06:02:06;;;;;;;5.67;4.80;;;;;;;;;;5099015;28;20432;-71
2021/07/26 06:04:32;;;;;;;6.33;4.10;;;;;;;;;;5095452;28;20447;-70
2021/07/26 06:07:00;;;;;;;6.57;4.17;;;;;;;;;;5093745;28;20941;-70
2021/07/26 06:09:26;;;;;;;9.30;4.50;;;;;;;;;;5102692;28;20926;-70
2021/07/26 06:11:52;;;;;;;5.90;3.97;;;;;;;;;;5099704;28;20448;-71
2021/07/26 06:14:19;;;;;;;7.07;5.20;;;;;;;;;;5084668;28;20533;-71
2021/07/26 06:16:46;;;;;;;6.63;4.70;;;;;;;;;;5088997;28;20478;-70
2021/07/26 06:19:13;;;;;;;8.33;4.50;;;;;;;;;;5093736;28;20447;-70
2021/07/26 06:21:46;;;;;;;5.60;4.27;;;;;;;;;;5092307;28;20460;-70
2021/07/26 06:24:13;;;;;;;6.47;3.33;;;;;;;;;;5093256;28;20546;-70
2021/07/26 06:26:39;;;;;;;6.03;4.90;;;;;;;;;;5093547;28;20885;-71
2021/07/26 06:29:05;;;;;;;9.60;6.40;;;;;;;;;;5093517;28;20446;-71
2021/07/26 06:31:32;;;;;;;7.67;4.20;;;;;;;;;;5094221;28;20443;-71
2021/07/26 06:33:59;;;;;;;7.97;4.07;;;;;;;;;;5094131;28;20452;-71
2021/07/26 06:36:25;;;;;;;8.17;4.17;;;;;;;;;;5092947;28;20461;-71
2021/07/26 06:38:51;;;;;;;7.00;4.07;;;;;;;;;;5094650;28;20529;-71
2021/07/26 06:41:17;;;;;;;5.27;4.27;;;;;;;;;;5092800;28;20455;-71
2021/07/26 06:43:43;;;;;;;6.17;4.23;;;;;;;;;;5093147;28;20486;-70
2021/07/26 06:46:09;;;;;;;5.70;4.33;;;;;;;;;;5092744;28;20471;-71
2021/07/26 06:48:35;;;;;;;14.47;4.90;;;;;;;;;;5093357;28;20499;-71
2021/07/26 06:51:04;;;;;;;6.57;4.10;;;;;;;;;;5083409;28;20531;-70
2021/07/26 06:53:32;;;;;;;7.10;5.40;;;;;;;;;;5088224;28;20997;-71
2021/07/26 06:56:02;;;;;;;9.47;4.73;;;;;;;;;;5092554;28;20454;-71
2021/07/26 06:58:31;;;;;;;7.73;4.40;;;;;;;;;;5091831;28;20984;-71
2021/07/26 07:01:07;;;;;;;6.53;4.67;;;;;;;;;;5090908;28;20905;-70
2021/07/26 07:03:34;;;;;;;5.77;4.70;;;;;;;;;;5091182;28;20470;-71
2021/07/26 07:06:02;;;;;;;5.73;4.60;;;;;;;;;;5089954;28;20431;-71
2021/07/26 07:08:29;;;;;;;5.47;4.33;;;;;;;;;;5081958;28;20412;-71
2021/07/26 07:11:07;;;;;;;8.73;4.90;;;;;;;;;;5090243;28;20465;-70
2021/07/26 07:13:34;;;;;;;6.40;4.70;;;;;;;;;;5091940;28;20412;-70
2021/07/26 07:16:00;;;;;;;9.13;4.13;;;;;;;;;;5088757;28;20424;-70
2021/07/26 07:18:26;;;;;;;7.57;4.27;;;;;;;;;;5085493;28;20439;-71
2021/07/26 07:20:52;;;;;;;9.00;6.00;;;;;;;;;;5085448;28;20514;-71
2021/07/26 07:23:18;;;;;;;6.77;4.77;;;;;;;;;;5080805;28;20459;-70
2021/07/26 07:25:45;;;;;;;5.40;3.87;;;;;;;;;;5075485;28;20443;-70
2021/07/26 07:28:11;;;;;;;4.27;3.33;;;;;;;;;;5082636;28;20508;-70
2021/07/26 07:30:37;;;;;;;5.63;3.80;;;;;;;;;;5085406;28;20984;-70
2021/07/26 07:33:03;;;;;;;6.40;3.90;;;;;;;;;;5092182;28;20415;-70
2021/07/26 07:35:29;;;;;;;4.30;3.40;;;;;;;;;;5085441;28;20494;-70
2021/07/26 07:37:55;;;;;;;5.83;4.10;;;;;;;;;;5092400;28;20828;-70
2021/07/26 07:40:23;;;;;;;5.57;3.67;;;;;;;;;;5093217;28;20404;-70
2021/07/26 07:42:49;;;;;;;5.73;3.50;;;;;;;;;;5075397;22;20476;-65
2021/07/26 07:45:15;;;;;;;3.90;2.90;;;;;;;;;;5052158;28;20560;-65
2021/07/26 07:47:41;;;;;;;5.93;3.60;;;;;;;;;;5048956;28;20453;-64
2021/07/26 07:50:08;;;;;;;5.43;3.97;;;;;;;;;;5039750;28;20424;-64
2021/07/26 07:52:34;;;;;;;7.53;4.47;;;;;;;;;;5055942;28;20421;-64
2021/07/26 07:55:01;;;;;;;6.20;3.43;;;;;;;;;;5054074;28;20449;-64
2021/07/26 07:57:31;;;;;;;5.70;4.47;;;;;;;;;;5049439;28;20426;-64
2021/07/26 07:59:57;;;;;;;6.47;3.97;;;;;;;;;;5047329;28;20982;-71
2021/07/26 08:02:24;;;;;;;6.37;4.30;;;;;;;;;;5046834;28;20886;-70
2021/07/26 08:04:52;;;;;;;6.40;4.83;;;;;;;;;;5051178;28;20490;-70
2021/07/26 08:07:18;;;;;;;5.43;4.10;;;;;;;;;;5046195;28;20421;-69
2021/07/26 08:09:44;;;;;;;5.07;3.90;;;;;;;;;;5044981;28;20402;-68
2021/07/26 08:12:10;;;;;;;6.20;4.50;;;;;;;;;;5051742;28;20793;-67
2021/07/26 08:14:36;;;;;;;5.00;3.50;;;;;;;;;;5048155;28;20510;-69
2021/07/26 08:17:03;;;;;;;5.80;4.03;;;;;;;;;;5043008;28;20429;-68
2021/07/26 08:19:29;;;;;;;12.73;3.60;;;;;;;;;;5043049;28;20422;-69
2021/07/26 08:21:55;;;;;;;6.93;3.50;;;;;;;;;;5025692;28;20421;-68
2021/07/26 08:24:21;;;;;;;5.00;3.30;;;;;;;;;;5044117;28;20893;-68
2021/07/26 08:26:47;;;;;;;8.30;3.80;;;;;;;;;;5051770;28;20817;-70
2021/07/26 08:29:13;;;;;;;6.00;4.27;;;;;;;;;;5052845;28;20444;-70
2021/07/26 08:31:39;;;;;;;5.73;3.77;;;;;;;;;;5051798;28;20421;-70
2021/07/26 08:34:05;;;;;;;4.83;3.30;;;;;;;;;;5049263;28;20503;-68
2021/07/26 08:36:31;;;;;;;5.60;4.30;;;;;;;;;;5049562;28;20454;-69
2021/07/26 08:38:57;;;;;;;7.80;3.57;;;;;;;;;;5049343;28;20929;-63
2021/07/26 08:41:23;;;;;;;7.30;4.47;;;;;;;;;;5050723;28;20615;-63
2021/07/26 08:43:49;;;;;;;4.87;3.87;;;;;;;;;;5044947;28;20551;-62
2021/07/26 08:46:17;;;;;;;6.13;3.80;;;;;;;;;;5035165;28;20810;-63
2021/07/26 08:48:44;;;;;;;5.00;3.37;;;;;;;;;;5043378;28;20425;-63
2021/07/26 08:51:12;;;;;;;8.60;4.10;;;;;;;;;;5027155;28;20424;-63
2021/07/26 08:53:38;;;;;;;8.93;4.07;;;;;;;;;;5049246;28;20429;-62
2021/07/26 08:56:06;;;;;;;8.03;5.00;;;;;;;;;;5049696;28;20503;-63
2021/07/26 08:58:32;;;;;;;5.93;4.00;;;;;;;;;;5049518;28;20478;-63
2021/07/26 09:00:58;;;;;;;5.90;4.23;;;;;;;;;;5050805;28;20421;-64
2021/07/26 09:03:24;;;;;;;9.97;4.17;;;;;;;;;;5056068;28;20474;-69
2021/07/26 09:05:50;;;;;;;8.63;3.30;;;;;;;;;;5046310;28;20431;-64
2021/07/26 09:08:16;;;;;;;6.60;3.67;;;;;;;;;;5052864;28;20893;-63
2021/07/26 09:10:43;;;;;;;4.80;3.67;;;;;;;;;;5057659;28;20767;-68
2021/07/26 09:13:12;;;;;;;4.53;3.40;;;;;;;;;;5052330;28;20817;-63
2021/07/26 09:15:40;;;;;;;5.73;3.87;;;;;;;;;;5053967;28;20437;-64
2021/07/26 09:18:07;;;;;;;6.47;3.87;;;;;;;;;;5035204;28;20429;-69
2021/07/26 09:20:34;;;;;;;4.30;3.40;;;;;;;;;;5053372;28;20512;-68
2021/07/26 09:23:13;;;;;;;6.20;4.17;;;;;;;;;;5052687;28;20457;-68
2021/07/26 09:25:40;;;;;;;6.90;4.43;;;;;;;;;;5049173;28;20546;-68
2021/07/26 09:28:07;;;;;;;9.40;4.20;;;;;;;;;;5043106;28;20424;-67
2021/07/26 09:30:34;;;;;;;9.87;5.00;;;;;;;;;;5051504;28;20409;-69
2021/07/26 09:33:05;;;;;;;7.77;5.20;;;;;;;;;;5053327;28;20433;-69
2021/07/26 09:35:31;;;;;;;6.90;4.70;;;;;;;;;;5047790;28;20445;-68
2021/07/26 09:38:03;;;;;;;6.10;4.33;;;;;;;;;;5054127;28;20430;-63
2021/07/26 09:40:34;;;;;;;4.90;4.30;;;;;;;;;;5053795;28;20423;-61
2021/07/26 09:43:19;;;;;;;6.90;4.90;;;;;;;;;;5053608;28;20453;-66
2021/07/26 09:45:45;;;;;;;5.70;4.13;;;;;;;;;;5058175;28;20461;-68
2021/07/26 09:48:13;;;;;;;5.23;3.93;;;;;;;;;;5055851;28;20504;-68
2021/07/26 09:50:47;;;;;;;7.50;4.33;;;;;;;;;;5053053;28;20956;-69
2021/07/26 09:53:14;;;;;;;4.53;3.63;;;;;;;;;;5055317;28;20448;-70
2021/07/26 09:55:42;;;;;;;5.97;4.10;;;;;;;;;;5053320;28;20444;-69
2021/07/26 09:58:09;;;;;;;7.73;4.63;;;;;;;;;;5054194;28;20447;-67
2021/07/26 10:00:36;;;;;;;7.20;4.30;;;;;;;;;;5061619;28;20502;-70
2021/07/26 10:03:02;;;;;;;5.90;4.23;;;;;;;;;;5053849;28;20639;-66
2021/07/26 10:05:28;;;;;;;6.57;4.37;;;;;;;;;;5052395;28;20437;-69
2021/07/26 10:07:54;;;;;;;8.53;4.33;;;;;;;;;;5051858;28;20781;-66
2021/07/26 10:10:22;;;;;;;6.60;5.03;;;;;;;;;;5055430;28;20480;-64
2021/07/26 10:12:48;;;;;;;5.77;4.03;;;;;;;;;;5052936;28;20418;-66
2021/07/26 10:15:15;;;;;;;5.13;4.50;;;;;;;;;;5050623;28;20960;-66
2021/07/26 10:17:41;;;;;;;8.83;4.17;;;;;;;;;;5050208;28;20468;-66
2021/07/26 10:20:08;;;;;;;5.93;4.03;;;;;;;;;;5052449;28;20437;-65
2021/07/26 10:22:35;;;;;;;4.73;3.43;;;;;;;;;;5050155;28;20756;-64
2021/07/26 10:25:06;;;;;;;6.57;5.10;;;;;;;;;;5053134;28;20516;-64
2021/07/26 10:27:33;;;;;;;5.20;4.40;;;;;;;;;;5053508;28;20420;-67
2021/07/26 10:30:00;;;;;;;9.63;5.30;;;;;;;;;;5050933;28;20932;-65
2021/07/26 10:32:39;;;;;;;5.07;4.00;;;;;;;;;;5053860;28;20487;-64
2021/07/26 10:35:17;;;;;;;6.07;4.63;;;;;;;;;;5054626;28;20475;-64
2021/07/26 10:37:46;;;;;;;7.47;5.07;;;;;;;;;;5055468;28;20424;-64
2021/07/26 10:40:18;;;;;;;9.07;5.00;;;;;;;;;;5052449;28;20572;-64
2021/07/26 10:42:44;;;;;;;5.03;3.70;;;;;;;;;;5051001;28;20966;-64
2021/07/26 10:45:10;;;;;;;5.50;4.23;;;;;;;;;;5052586;28;20450;-64
2021/07/26 10:47:36;;;;;;;7.30;4.87;;;;;;;;;;5053250;28;20456;-64
2021/07/26 10:50:10;;;;;;;5.80;4.47;;;;;;;;;;5054696;28;20761;-64
2021/07/26 10:52:36;;;;;;;6.37;4.20;;;;;;;;;;5046907;28;20425;-63
2021/07/26 10:55:04;;;;;;;7.60;4.63;;;;;;;;;;5062432;28;20425;-68
2021/07/26 10:57:39;;;;;;;6.43;4.33;;;;;;;;;;5049448;28;20538;-64
2021/07/26 11:00:05;;;;;;;7.33;4.00;;;;;;;;;;5051468;28;20417;-65
2021/07/26 11:02:34;;;;;;;7.83;4.03;;;;;;;;;;5052677;28;20422;-65
2021/07/26 11:05:20;;;;;;;6.83;4.20;;;;;;;;;;5049539;28;20809;-64
2021/07/26 11:07:47;;;;;;;6.57;4.73;;;;;;;;;;5044160;28;20428;-63
2021/07/26 11:10:31;;;;;;;8.77;4.90;;;;;;;;;;5047704;28;20422;-66
2021/07/26 11:12:57;;;;;;;7.20;4.10;;;;;;;;;;5054319;28;20424;-68
2021/07/26 11:15:24;;;;;;;7.13;4.83;;;;;;;;;;5055140;28;20462;-67
2021/07/26 11:18:09;;;;;;;9.30;4.30;;;;;;;;;;5053877;28;20432;-67
2021/07/26 11:21:13;;;;;;;7.00;4.30;;;;;;;;;;5052735;28;20413;-66
2021/07/26 11:23:43;;;;;;;5.80;4.27;;;;;;;;;;4949431;28;20485;-64
2021/07/26 11:26:19;;;;;;;6.30;4.30;;;;;;;;;;4952734;29;20422;-66
2021/07/26 11:28:45;;;;;;;5.37;4.47;;;;;;;;;;5006311;28;20521;-66
2021/07/26 11:31:12;;;;;;;6.20;4.10;;;;;;;;;;5050527;28;20437;-66
2021/07/26 11:33:38;;;;;;;5.83;4.53;;;;;;;;;;5051099;28;20432;-67
2021/07/26 11:36:10;;;;;;;8.40;4.77;;;;;;;;;;5052105;28;20413;-66
2021/07/26 11:38:55;;;;;;;5.47;4.97;;;;;;;;;;5050334;28;20425;-66
2021/07/26 11:41:22;;;;;;;4.60;3.60;;;;;;;;;;5049725;28;20445;-68
2021/07/26 11:43:48;;;;;;;5.70;3.50;;;;;;;;;;5050362;28;20472;-65
2021/07/26 11:46:14;;;;;;;7.50;4.00;;;;;;;;;;5051280;28;20448;-68
2021/07/26 11:48:41;;;;;;;6.80;3.93;;;;;;;;;;5054771;28;20428;-62
2021/07/26 11:51:27;;;;;;;5.90;4.40;;;;;;;;;;5048805;28;20444;-71
2021/07/26 11:53:57;;;;;;;7.13;4.10;;;;;;;;;;5053820;28;20460;-65
2021/07/26 11:56:27;;;;;;;5.90;4.40;;;;;;;;;;5050738;28;20802;-69
2021/07/26 11:58:53;;;;;;;5.10;3.50;;;;;;;;;;5032913;28;20420;-69
2021/07/26 12:01:19;;;;;;;5.30;3.97;;;;;;;;;;5056532;28;20462;-68
2021/07/26 12:03:45;;;;;;;7.00;4.10;;;;;;;;;;5048508;28;20554;-68
2021/07/26 12:06:11;;;;;;;4.87;3.67;;;;;;;;;;5049988;28;20437;-68
2021/07/26 12:08:38;;;;;;;4.70;3.43;;;;;;;;;;5052708;28;20425;-68
2021/07/26 12:11:16;;;;;;;8.23;5.63;;;;;;;;;;5044113;28;20543;-69
2021/07/26 12:13:42;;;;;;;9.50;4.23;;;;;;;;;;5050316;28;20455;-66
2021/07/26 12:16:10;;;;;;;6.90;3.90;;;;;;;;;;5052215;28;20421;-68
2021/07/26 12:18:36;;;;;;;6.63;4.50;;;;;;;;;;5044411;28;20428;-67
2021/07/26 12:21:03;;;;;;;4.83;4.00;;;;;;;;;;5052568;28;20420;-67
2021/07/26 12:23:30;;;;;;;4.77;3.93;;;;;;;;;;5048757;28;20464;-69
2021/07/26 12:26:05;;;;;;;7.20;4.90;;;;;;;;;;5044385;28;20849;-68
2021/07/26 12:28:45;;;;;;;5.70;4.43;;;;;;;;;;5049222;28;20433;-69
2021/07/26 12:31:24;;;;;;;6.43;4.13;;;;;;;;;;5054056;28;20749;-68
2021/07/26 12:33:50;;;;;;;4.97;4.10;;;;;;;;;;5051236;28;20440;-68
2021/07/26 12:36:17;;;;;;;8.33;4.40;;;;;;;;;;5054389;28;20441;-68
2021/07/26 12:39:03;;;;;;;6.60;4.17;;;;;;;;;;5061549;28;20435;-67
2021/07/26 12:41:29;;;;;;;9.03;3.57;;;;;;;;;;5054561;28;20413;-68
2021/07/26 12:44:12;;;;;;;6.10;4.03;;;;;;;;;;5052408;28;20572;-67
2021/07/26 12:46:38;;;;;;;4.47;3.77;;;;;;;;;;5054954;28;20757;-67
2021/07/26 12:49:04;;;;;;;5.10;3.90;;;;;;;;;;5055249;28;20478;-68
2021/07/26 12:51:30;;;;;;;6.30;4.33;;;;;;;;;;5054074;28;20457;-69
2021/07/26 12:53:56;;;;;;;7.80;4.30;;;;;;;;;;5050904;28;20503;-68
2021/07/26 12:56:22;;;;;;;6.17;4.30;;;;;;;;;;5045343;28;20824;-67
2021/07/26 12:58:48;;;;;;;7.33;5.43;;;;;;;;;;5052079;28;20426;-68
2021/07/26 13:01:14;;;;;;;8.57;4.03;;;;;;;;;;5061305;28;20448;-68
2021/07/26 13:03:40;;;;;;;4.13;3.57;;;;;;;;;;5053089;28;20506;-68
2021/07/26 13:06:06;;;;;;;6.57;4.23;;;;;;;;;;5053392;28;20823;-68
2021/07/26 13:08:32;;;;;;;4.80;3.53;;;;;;;;;;5053305;28;20413;-67
2021/07/26 13:10:58;;;;;;;5.97;4.27;;;;;;;;;;5052335;28;20529;-68
2021/07/26 13:13:24;;;;;;;4.80;4.00;;;;;;;;;;5052884;28;20509;-68
2021/07/26 13:15:50;;;;;;;5.37;4.00;;;;;;;;;;5048096;28;20988;-67
2021/07/26 13:18:19;;;;;;;5.40;4.40;;;;;;;;;;5060756;28;20431;-67
2021/07/26 13:20:45;;;;;;;5.03;3.80;;;;;;;;;;5054204;28;20424;-68
2021/07/26 13:23:11;;;;;;;4.63;3.53;;;;;;;;;;5051964;28;20540;-68
2021/07/26 13:25:40;;;;;;;6.23;4.83;;;;;;;;;;5050663;28;20477;-68
2021/07/26 13:28:07;;;;;;;4.87;3.80;;;;;;;;;;5053077;28;20455;-68
2021/07/26 13:30:33;;;;;;;5.87;3.97;;;;;;;;;;5054080;28;20445;-67
2021/07/26 13:32:59;;;;;;;5.03;3.80;;;;;;;;;;5053942;28;20509;-67
2021/07/26 13:35:25;;;;;;;4.70;3.83;;;;;;;;;;5035704;28;20449;-68
2021/07/26 13:37:51;;;;;;;4.30;3.83;;;;;;;;;;5052446;28;20421;-68
2021/07/26 13:40:18;;;;;;;5.60;3.97;;;;;;;;;;5055054;28;20432;-68
2021/07/26 13:42:45;;;;;;;5.23;3.40;;;;;;;;;;5053483;28;20444;-68
2021/07/26 13:45:11;;;;;;;6.10;4.40;;;;;;;;;;5058361;28;20445;-69
2021/07/26 13:47:37;;;;;;;7.47;4.40;;;;;;;;;;5053459;28;20421;-68
2021/07/26 13:50:04;;;;;;;4.50;3.97;;;;;;;;;;5062853;28;20789;-67
2021/07/26 13:52:31;;;;;;;4.57;3.80;;;;;;;;;;5058043;28;20456;-67
2021/07/26 13:54:58;;;;;;;6.43;4.27;;;;;;;;;;5051153;28;20453;-67
2021/07/26 13:57:24;;;;;;;5.60;3.60;;;;;;;;;;5051852;28;20422;-68
2021/07/26 13:59:50;;;;;;;4.27;3.47;;;;;;;;;;5047009;28;20468;-67
2021/07/26 14:02:18;;;;;;;5.10;4.10;;;;;;;;;;5052631;28;20459;-67
2021/07/26 14:04:44;;;;;;;5.00;4.40;;;;;;;;;;5049620;28;20833;-67
2021/07/26 14:07:10;;;;;;;7.60;3.77;;;;;;;;;;5053938;28;20445;-67
2021/07/26 14:09:36;;;;;;;4.90;3.50;;;;;;;;;;5051812;28;20448;-68
2021/07/26 14:12:02;;;;;;;4.43;3.30;;;;;;;;;;5052421;28;20443;-68
2021/07/26 14:14:28;;;;;;;7.30;3.70;;;;;;;;;;5055604;28;20444;-67
2021/07/26 14:16:56;;;;;;;6.33;4.10;;;;;;;;;;5032223;28;20446;-69
2021/07/26 14:19:24;;;;;;;4.90;3.77;;;;;;;;;;5051325;28;20417;-68
2021/07/26 14:21:50;;;;;;;4.77;4.23;;;;;;;;;;5053063;28;20512;-67
2021/07/26 14:24:16;;;;;;;5.20;3.60;;;;;;;;;;5049957;28;20476;-68
2021/07/26 14:26:42;;;;;;;5.63;3.23;;;;;;;;;;5051080;28;20802;-68
2021/07/26 14:29:12;;;;;;;5.30;4.20;;;;;;;;;;5051117;28;20509;-68
2021/07/26 14:31:38;;;;;;;6.00;4.10;;;;;;;;;;5048254;28;20425;-68
2021/07/26 14:34:04;;;;;;;4.33;3.37;;;;;;;;;;5051614;28;20503;-68
2021/07/26 14:36:31;;;;;;;7.00;3.77;;;;;;;;;;5051240;28;20432;-68
2021/07/26 14:38:57;;;;;;;5.57;4.13;;;;;;;;;;5052982;28;20467;-68
2021/07/26 14:41:26;;;;;;;4.73;3.33;;;;;;;;;;5061599;28;20448;-69
2021/07/26 14:43:53;;;;;;;4.50;3.10;;;;;;;;;;5051857;28;20961;-67